createdAt,value
2018-12-29T00:00:38.579Z,7.00
2018-12-29T00:03:08.301Z,6.77
2018-12-29T00:05:37.607Z,5.83
2018-12-29T00:08:07.140Z,7.37
2018-12-29T00:10:36.222Z,7.27
2018-12-29T00:13:05.441Z,6.90
2018-12-29T00:15:34.480Z,7.00
2018-12-29T00:18:03.979Z,6.57
2018-12-29T00:20:33.200Z,7.50
2018-12-29T00:23:02.339Z,7.40
2018-12-29T00:25:31.663Z,7.50
2018-12-29T00:28:01.261Z,7.23
2018-12-29T00:30:30.740Z,6.80
2018-12-29T00:33:00.321Z,6.80
2018-12-29T00:35:29.960Z,6.70
2018-12-29T00:37:59.420Z,6.93
2018-12-29T00:40:28.706Z,6.90
2018-12-29T00:42:58.249Z,7.47
2018-12-29T00:45:27.361Z,7.87
2018-12-29T00:47:57.454Z,7.47
2018-12-29T00:50:26.882Z,7.93
2018-12-29T00:52:56.323Z,7.03
2018-12-29T00:55:25.941Z,7.40
2018-12-29T00:57:55.423Z,6.93
2018-12-29T01:00:24.382Z,7.73
2018-12-29T01:02:53.543Z,8.40
2018-12-29T01:05:23.386Z,8.70
2018-12-29T01:07:52.943Z,9.10
2018-12-29T01:10:22.620Z,8.20
2018-12-29T01:12:51.979Z,7.77
2018-12-29T01:15:21.779Z,8.17
2018-12-29T01:17:51.361Z,8.53
2018-12-29T01:20:23.061Z,8.53
2018-12-29T01:22:53.079Z,8.03
2018-12-29T01:25:22.821Z,8.37
2018-12-29T01:27:51.999Z,9.23
2018-12-29T01:30:21.540Z,8.63
2018-12-29T01:32:50.880Z,8.63
2018-12-29T01:35:20.499Z,9.17
2018-12-29T01:37:50.718Z,9.07
2018-12-29T01:40:20.161Z,9.37
2018-12-29T01:42:49.499Z,9.43
2018-12-29T01:45:18.780Z,9.43
2018-12-29T01:47:48.119Z,9.57
2018-12-29T01:50:17.598Z,9.20
2018-12-29T01:52:47.320Z,9.23
2018-12-29T01:55:16.559Z,10.70
2018-12-29T01:57:45.960Z,10.50
2018-12-29T02:00:15.137Z,9.60
2018-12-29T02:02:44.862Z,10.47
2018-12-29T02:05:14.280Z,10.40
2018-12-29T02:07:43.680Z,10.53
2018-12-29T02:10:13.105Z,10.87
2018-12-29T02:12:42.449Z,11.70
2018-12-29T02:15:11.921Z,12.10
2018-12-29T02:17:41.362Z,11.77
2018-12-29T02:20:10.642Z,11.73
2018-12-29T02:22:40.001Z,12.10
2018-12-29T02:25:09.421Z,13.23
2018-12-29T02:27:40.101Z,13.07
2018-12-29T02:30:12.403Z,12.67
2018-12-29T02:32:41.867Z,13.13
2018-12-29T02:35:11.221Z,13.47
2018-12-29T02:37:40.898Z,13.03
2018-12-29T02:40:10.180Z,14.00
2018-12-29T02:42:39.488Z,13.80
2018-12-29T02:45:08.820Z,13.87
2018-12-29T02:47:38.238Z,14.93
2018-12-29T02:50:07.727Z,14.47
2018-12-29T02:52:37.401Z,15.43
2018-12-29T02:55:06.920Z,14.93
2018-12-29T02:57:36.200Z,15.37
2018-12-29T03:00:06.525Z,16.20
2018-12-29T03:02:36.048Z,15.43
2018-12-29T03:05:05.968Z,14.50
2018-12-29T03:07:35.030Z,14.30
2018-12-29T03:10:05.067Z,13.63
2018-12-29T03:12:34.889Z,16.27
2018-12-29T03:15:04.327Z,17.00
2018-12-29T03:17:39.932Z,17.27
2018-12-29T03:20:09.428Z,16.10
2018-12-29T03:22:38.647Z,15.90
2018-12-29T03:25:07.871Z,16.63
2018-12-29T03:27:37.300Z,16.80
2018-12-29T03:30:08.221Z,15.73
2018-12-29T03:32:38.082Z,15.67
2018-12-29T03:35:08.020Z,16.57
2018-12-29T03:37:37.001Z,16.53
2018-12-29T03:40:07.442Z,16.77
2018-12-29T03:42:36.799Z,16.03
2018-12-29T03:45:07.480Z,15.53
2018-12-29T03:47:36.601Z,16.57
2018-12-29T03:50:09.922Z,16.20
2018-12-29T03:52:39.728Z,15.67
2018-12-29T03:55:09.121Z,16.60
2018-12-29T03:57:38.559Z,15.87
2018-12-29T04:00:08.178Z,15.77
2018-12-29T04:02:37.663Z,16.10
2018-12-29T04:05:08.344Z,17.40
2018-12-29T04:07:38.564Z,15.33
2018-12-29T04:10:11.107Z,16.47
2018-12-29T04:12:41.082Z,15.10
2018-12-29T04:15:10.766Z,16.53
2018-12-29T04:17:40.206Z,16.10
2018-12-29T04:20:09.465Z,15.30
2018-12-29T04:22:38.779Z,15.17
2018-12-29T04:25:08.001Z,16.37
2018-12-29T04:27:37.400Z,15.43
2018-12-29T04:30:06.741Z,15.93
2018-12-29T04:32:35.849Z,15.30
2018-12-29T04:35:05.921Z,15.63
2018-12-29T04:37:35.599Z,15.20
2018-12-29T04:40:05.209Z,16.87
2018-12-29T04:42:34.323Z,16.10
2018-12-29T04:45:04.220Z,16.27
2018-12-29T04:47:33.859Z,16.97
2018-12-29T04:50:03.490Z,16.20
2018-12-29T04:52:37.259Z,15.73
2018-12-29T04:55:06.561Z,15.83
2018-12-29T04:57:36.002Z,14.83
2018-12-29T05:00:06.549Z,14.40
2018-12-29T05:02:36.447Z,15.57
2018-12-29T05:05:09.320Z,15.53
2018-12-29T05:07:38.560Z,16.63
2018-12-29T05:10:07.839Z,15.13
2018-12-29T05:12:37.120Z,14.67
2018-12-29T05:15:07.400Z,14.77
2018-12-29T05:17:36.560Z,14.40
2018-12-29T05:20:05.763Z,14.23
2018-12-29T05:22:35.087Z,13.90
2018-12-29T05:25:04.262Z,13.57
2018-12-29T05:27:33.443Z,14.77
2018-12-29T05:30:02.523Z,13.63
2018-12-29T05:32:31.711Z,14.10
2018-12-29T05:35:01.452Z,13.00
2018-12-29T05:37:30.984Z,14.40
2018-12-29T05:40:00.391Z,13.13
2018-12-29T05:42:30.151Z,15.03
2018-12-29T05:44:59.624Z,13.93
2018-12-29T05:47:28.704Z,13.87
2018-12-29T05:49:57.943Z,12.50
2018-12-29T05:52:27.506Z,13.70
2018-12-29T05:54:56.963Z,13.40
2018-12-29T05:57:26.263Z,13.10
2018-12-29T05:59:56.941Z,13.97
2018-12-29T06:02:26.248Z,13.87
2018-12-29T06:04:55.388Z,14.17
2018-12-29T06:07:24.811Z,14.00
2018-12-29T06:09:54.568Z,13.33
2018-12-29T06:12:24.069Z,14.37
2018-12-29T06:14:53.389Z,13.53
2018-12-29T06:17:22.890Z,13.23
2018-12-29T06:19:52.329Z,13.50
2018-12-29T06:22:21.668Z,12.40
2018-12-29T06:24:50.774Z,14.17
2018-12-29T06:27:20.369Z,15.20
2018-12-29T06:30:01.940Z,20.13
2018-12-29T06:32:31.340Z,14.00
2018-12-29T06:35:01.240Z,12.60
2018-12-29T06:37:31.081Z,14.93
2018-12-29T06:40:00.336Z,13.40
2018-12-29T06:42:29.700Z,12.93
2018-12-29T06:44:59.181Z,14.20
2018-12-29T06:47:30.280Z,13.50
2018-12-29T06:49:59.700Z,12.93
2018-12-29T06:52:32.412Z,13.53
2018-12-29T06:55:02.219Z,12.17
2018-12-29T06:57:31.760Z,12.43
2018-12-29T07:00:00.927Z,12.73
2018-12-29T07:02:30.439Z,13.37
2018-12-29T07:05:00.000Z,12.77
2018-12-29T07:07:29.600Z,12.33
2018-12-29T07:09:59.660Z,12.00
2018-12-29T07:12:29.401Z,13.10
2018-12-29T07:14:58.648Z,12.70
2018-12-29T07:17:28.562Z,12.53
2018-12-29T07:19:59.740Z,11.53
2018-12-29T07:22:29.129Z,11.53
2018-12-29T07:24:58.881Z,12.20
2018-12-29T07:27:29.519Z,11.80
2018-12-29T07:29:58.740Z,12.43
2018-12-29T07:32:28.500Z,13.53
2018-12-29T07:34:58.560Z,13.27
2018-12-29T07:37:29.420Z,14.77
2018-12-29T07:39:58.940Z,12.00
2018-12-29T07:42:28.840Z,12.90
2018-12-29T07:44:58.060Z,12.00
2018-12-29T07:47:28.579Z,11.57
2018-12-29T07:49:58.399Z,13.93
2018-12-29T07:52:28.200Z,14.17
2018-12-29T07:54:57.600Z,12.23
2018-12-29T07:57:27.101Z,13.67
2018-12-29T07:59:56.482Z,11.83
2018-12-29T08:02:25.923Z,14.20
2018-12-29T08:04:55.407Z,13.90
2018-12-29T08:07:25.082Z,15.40
2018-12-29T08:09:54.103Z,11.60
2018-12-29T08:12:39.782Z,12.80
2018-12-29T08:15:09.279Z,13.90
2018-12-29T08:17:38.488Z,14.20
2018-12-29T08:20:07.880Z,14.73
2018-12-29T08:22:37.438Z,13.13
2018-12-29T08:25:06.989Z,12.83
2018-12-29T08:27:37.179Z,12.17
2018-12-29T08:30:07.827Z,11.87
2018-12-29T08:32:37.147Z,11.47
2018-12-29T08:35:06.821Z,10.63
2018-12-29T08:37:36.950Z,12.97
2018-12-29T08:40:06.658Z,12.73
2018-12-29T08:42:35.969Z,13.60
2018-12-29T08:45:05.332Z,12.30
2018-12-29T08:47:35.039Z,11.90
2018-12-29T08:50:12.753Z,12.10
2018-12-29T08:52:37.463Z,12.33
2018-12-29T08:55:06.680Z,12.70
2018-12-29T08:57:37.339Z,11.93
2018-12-29T09:00:09.078Z,11.70
2018-12-29T09:02:38.867Z,11.73
2018-12-29T09:05:08.476Z,10.97
2018-12-29T09:07:38.287Z,11.63
2018-12-29T09:10:07.687Z,10.77
2018-12-29T09:12:37.186Z,11.27
2018-12-29T09:15:07.107Z,11.07
2018-12-29T09:17:36.686Z,11.37
2018-12-29T09:20:07.685Z,11.17
2018-12-29T09:22:37.227Z,11.10
2018-12-29T09:25:06.769Z,11.17
2018-12-29T09:27:36.026Z,10.43
2018-12-29T09:30:07.651Z,11.47
2018-12-29T09:32:37.349Z,10.50
2018-12-29T09:35:07.475Z,12.03
2018-12-29T09:37:37.035Z,10.90
2018-12-29T09:40:07.692Z,10.33
2018-12-29T09:42:37.085Z,10.43
2018-12-29T09:45:07.304Z,10.73
2018-12-29T09:47:37.287Z,10.47
2018-12-29T09:50:07.627Z,10.20
2018-12-29T09:52:37.606Z,10.70
2018-12-29T09:55:07.187Z,10.70
2018-12-29T09:57:36.846Z,10.03
2018-12-29T10:00:08.454Z,10.40
2018-12-29T10:02:37.928Z,10.67
2018-12-29T10:05:07.280Z,10.80
2018-12-29T10:07:37.240Z,10.57
2018-12-29T10:10:06.678Z,10.93
2018-12-29T10:12:36.758Z,10.60
2018-12-29T10:15:07.618Z,11.10
2018-12-29T10:17:38.090Z,10.97
2018-12-29T10:20:08.798Z,10.63
2018-12-29T10:22:38.958Z,11.50
2018-12-29T10:25:08.759Z,10.80
2018-12-29T10:27:40.559Z,10.93
2018-12-29T10:30:10.639Z,10.97
2018-12-29T10:32:40.481Z,10.80
2018-12-29T10:35:10.079Z,10.20
2018-12-29T10:37:40.319Z,11.70
2018-12-29T10:40:10.519Z,10.93
2018-12-29T10:42:40.479Z,9.73
2018-12-29T10:45:10.579Z,10.93
2018-12-29T10:47:40.079Z,10.60
2018-12-29T10:50:10.303Z,10.37
2018-12-29T10:52:40.620Z,10.50
2018-12-29T10:55:10.099Z,9.80
2018-12-29T10:57:41.758Z,10.07
2018-12-29T11:00:12.495Z,13.10
2018-12-29T11:02:43.560Z,13.33
2018-12-29T11:05:13.002Z,13.87
2018-12-29T11:07:42.639Z,13.93
2018-12-29T11:10:12.479Z,14.60
2018-12-29T11:12:42.201Z,15.90
2018-12-29T11:15:11.409Z,15.63
2018-12-29T11:17:42.342Z,15.47
2018-12-29T11:20:15.049Z,15.07
2018-12-29T11:22:44.721Z,16.20
2018-12-29T11:25:14.481Z,15.67
2018-12-29T11:27:44.221Z,15.20
2018-12-29T11:30:13.779Z,14.37
2018-12-29T11:32:43.520Z,15.10
2018-12-29T11:35:13.280Z,16.10
2018-12-29T11:37:44.150Z,17.03
2018-12-29T11:40:13.440Z,15.60
2018-12-29T11:42:43.220Z,19.27
2018-12-29T11:45:12.669Z,18.97
2018-12-29T11:47:49.618Z,19.73
2018-12-29T11:50:12.898Z,20.13
2018-12-29T11:52:42.241Z,20.43
2018-12-29T11:55:11.539Z,19.03
2018-12-29T11:57:41.100Z,19.80
2018-12-29T12:00:10.797Z,20.93
2018-12-29T12:02:40.343Z,20.37
2018-12-29T12:05:10.922Z,20.33
2018-12-29T12:07:40.683Z,20.07
2018-12-29T12:10:09.983Z,21.47
2018-12-29T12:12:40.503Z,21.60
2018-12-29T12:15:10.623Z,20.53
2018-12-29T12:17:39.823Z,20.57
2018-12-29T12:20:11.523Z,21.17
2018-12-29T12:22:40.963Z,20.63
2018-12-29T12:25:10.464Z,20.67
2018-12-29T12:27:40.244Z,20.13
2018-12-29T12:30:09.821Z,19.57
2018-12-29T12:32:39.624Z,19.77
2018-12-29T12:35:17.904Z,19.47
2018-12-29T12:37:46.971Z,19.00
2018-12-29T12:40:16.303Z,20.40
2018-12-29T12:42:45.922Z,24.10
2018-12-29T12:45:15.663Z,26.27
2018-12-29T12:47:45.325Z,23.70
2018-12-29T12:50:15.063Z,26.00
2018-12-29T12:52:44.562Z,25.63
2018-12-29T12:55:14.442Z,23.10
2018-12-29T12:57:43.924Z,22.13
2018-12-29T13:00:13.534Z,18.57
2018-12-29T13:02:43.148Z,19.90
2018-12-29T13:05:12.328Z,20.23
2018-12-29T13:07:41.668Z,19.40
2018-12-29T13:10:10.970Z,19.63
2018-12-29T13:12:40.330Z,19.60
2018-12-29T13:15:09.453Z,19.23
2018-12-29T13:17:38.889Z,19.03
2018-12-29T13:20:08.207Z,18.03
2018-12-29T13:22:37.588Z,20.80
2018-12-29T13:25:06.836Z,18.70
2018-12-29T13:27:36.290Z,19.03
2018-12-29T13:30:24.649Z,19.80
2018-12-29T13:32:54.518Z,19.03
2018-12-29T13:35:24.389Z,18.30
2018-12-29T13:37:53.929Z,17.30
2018-12-29T13:40:23.609Z,19.17
2018-12-29T13:42:53.127Z,19.23
2018-12-29T13:45:22.739Z,19.70
2018-12-29T13:47:52.178Z,19.23
2018-12-29T13:50:23.641Z,18.70
2018-12-29T13:52:53.139Z,19.43
2018-12-29T13:55:22.881Z,18.83
2018-12-29T13:57:52.361Z,19.23
2018-12-29T14:00:22.513Z,18.33
2018-12-29T14:02:52.068Z,20.77
2018-12-29T14:05:21.967Z,19.77
2018-12-29T14:07:51.667Z,19.97
2018-12-29T14:10:21.127Z,19.17
2018-12-29T14:12:50.407Z,20.70
2018-12-29T14:15:19.648Z,21.37
2018-12-29T14:17:49.353Z,21.70
2018-12-29T14:20:18.782Z,21.47
2018-12-29T14:22:48.017Z,21.37
2018-12-29T14:25:17.417Z,19.47
2018-12-29T14:27:46.513Z,20.50
2018-12-29T14:30:15.618Z,20.67
2018-12-29T14:32:45.198Z,20.20
2018-12-29T14:35:14.940Z,18.90
2018-12-29T14:37:44.337Z,18.50
2018-12-29T14:40:15.089Z,18.30
2018-12-29T14:42:44.181Z,17.57
2018-12-29T14:45:13.508Z,18.90
2018-12-29T14:47:45.980Z,18.77
2018-12-29T14:50:15.677Z,20.10
2018-12-29T14:52:45.340Z,21.27
2018-12-29T14:55:14.870Z,22.33
2018-12-29T14:57:44.663Z,21.37
2018-12-29T15:00:13.800Z,22.13
2018-12-29T15:02:43.667Z,23.53
2018-12-29T15:05:13.406Z,22.70
2018-12-29T15:07:42.927Z,23.50
2018-12-29T15:10:12.549Z,23.57
2018-12-29T15:12:42.590Z,24.07
2018-12-29T15:15:12.971Z,23.40
2018-12-29T15:17:42.190Z,22.33
2018-12-29T15:20:14.749Z,22.13
2018-12-29T15:22:44.231Z,20.97
2018-12-29T15:25:14.010Z,23.13
2018-12-29T15:27:44.331Z,22.97
2018-12-29T15:30:14.110Z,23.10
2018-12-29T15:32:43.539Z,22.20
2018-12-29T15:35:13.920Z,21.43
2018-12-29T15:37:43.301Z,22.10
2018-12-29T15:40:13.118Z,21.43
2018-12-29T15:42:45.075Z,20.93
2018-12-29T15:45:13.899Z,20.53
2018-12-29T15:47:43.458Z,21.67
2018-12-29T15:50:13.699Z,24.03
2018-12-29T15:52:42.979Z,25.53
2018-12-29T15:55:15.577Z,26.63
2018-12-29T15:57:44.817Z,26.03
2018-12-29T16:00:13.927Z,25.07
2018-12-29T16:02:43.782Z,26.03
2018-12-29T16:05:13.369Z,25.47
2018-12-29T16:07:43.682Z,23.73
2018-12-29T16:10:13.502Z,23.40
2018-12-29T16:12:42.562Z,23.20
2018-12-29T16:15:12.721Z,22.37
2018-12-29T16:17:42.404Z,23.33
2018-12-29T16:20:12.139Z,21.50
2018-12-29T16:22:41.563Z,23.13
2018-12-29T16:25:10.683Z,22.47
2018-12-29T16:27:40.381Z,27.10
2018-12-29T16:30:09.600Z,29.03
2018-12-29T16:32:38.981Z,25.23
2018-12-29T16:35:08.498Z,24.53
2018-12-29T16:37:38.243Z,23.03
2018-12-29T16:40:07.755Z,30.53
2018-12-29T16:42:37.201Z,37.53
2018-12-29T16:45:13.920Z,31.37
2018-12-29T16:47:43.564Z,23.60
2018-12-29T16:50:14.160Z,28.27
2018-12-29T16:52:43.498Z,23.13
2018-12-29T16:55:13.658Z,21.83
2018-12-29T16:57:43.399Z,23.10
2018-12-29T17:00:12.878Z,23.47
2018-12-29T17:02:42.235Z,26.60
2018-12-29T17:05:12.321Z,26.67
2018-12-29T17:07:42.201Z,27.13
2018-12-29T17:10:11.531Z,29.63
2018-12-29T17:12:40.878Z,28.70
2018-12-29T17:15:11.166Z,28.17
2018-12-29T17:17:40.537Z,27.57
2018-12-29T17:20:09.922Z,26.87
2018-12-29T17:22:40.065Z,28.17
2018-12-29T17:25:09.243Z,25.30
2018-12-29T17:27:38.821Z,26.67
2018-12-29T17:30:09.620Z,28.10
2018-12-29T17:32:39.688Z,31.73
2018-12-29T17:35:09.134Z,28.37
2018-12-29T17:37:38.334Z,28.07
2018-12-29T17:40:08.326Z,27.60
2018-12-29T17:42:37.766Z,25.30
2018-12-29T17:45:07.706Z,24.80
2018-12-29T17:47:36.885Z,24.33
2018-12-29T17:50:07.168Z,25.23
2018-12-29T17:52:36.430Z,24.90
2018-12-29T17:55:06.086Z,24.80
2018-12-29T17:57:35.687Z,23.67
2018-12-29T18:00:06.678Z,27.00
2018-12-29T18:02:36.481Z,25.77
2018-12-29T18:05:05.882Z,26.30
2018-12-29T18:07:35.381Z,26.73
2018-12-29T18:10:05.760Z,25.53
2018-12-29T18:12:36.904Z,24.03
2018-12-29T18:15:06.583Z,25.60
2018-12-29T18:17:35.971Z,25.80
2018-12-29T18:20:06.082Z,27.10
2018-12-29T18:22:36.244Z,25.63
2018-12-29T18:25:06.023Z,27.03
2018-12-29T18:27:35.961Z,37.87
2018-12-29T18:30:06.621Z,41.73
2018-12-29T18:32:36.179Z,24.47
2018-12-29T18:35:05.742Z,23.63
2018-12-29T18:37:35.091Z,25.40
2018-12-29T18:40:06.080Z,23.47
2018-12-29T18:42:35.203Z,24.30
2018-12-29T18:45:04.864Z,23.27
2018-12-29T18:47:34.263Z,23.90
2018-12-29T18:50:04.403Z,26.23
2018-12-29T18:52:33.926Z,26.13
2018-12-29T18:55:03.643Z,28.83
2018-12-29T18:57:33.709Z,26.17
2018-12-29T19:00:03.240Z,24.43
2018-12-29T19:02:32.647Z,22.53
2018-12-29T19:05:01.766Z,20.97
2018-12-29T19:07:32.877Z,23.67
2018-12-29T19:10:02.921Z,23.57
2018-12-29T19:12:33.957Z,24.07
2018-12-29T19:15:03.214Z,24.83
2018-12-29T19:17:33.036Z,24.63
2018-12-29T19:20:02.937Z,22.93
2018-12-29T19:22:32.607Z,22.70
2018-12-29T19:25:01.786Z,23.27
2018-12-29T19:27:31.538Z,22.33
2018-12-29T19:30:00.790Z,21.93
2018-12-29T19:32:30.402Z,22.07
2018-12-29T19:35:00.322Z,22.87
2018-12-29T19:37:30.324Z,23.67
2018-12-29T19:40:00.273Z,24.13
2018-12-29T19:42:30.102Z,24.00
2018-12-29T19:44:59.410Z,25.40
2018-12-29T19:47:28.862Z,26.63
2018-12-29T19:49:59.040Z,29.73
2018-12-29T19:52:28.261Z,27.43
2018-12-29T19:54:57.482Z,28.97
2018-12-29T19:57:27.619Z,27.40
2018-12-29T19:59:57.361Z,29.63
2018-12-29T20:02:27.443Z,27.67
2018-12-29T20:04:56.885Z,29.00
2018-12-29T20:07:26.774Z,28.70
2018-12-29T20:09:55.905Z,28.10
2018-12-29T20:12:25.423Z,28.30
2018-12-29T20:14:54.910Z,27.83
2018-12-29T20:17:24.463Z,27.10
2018-12-29T20:20:01.258Z,29.00
2018-12-29T20:22:26.563Z,27.43
2018-12-29T20:24:55.684Z,29.73
2018-12-29T20:27:25.083Z,30.17
2018-12-29T20:29:54.543Z,28.73
2018-12-29T20:32:24.263Z,29.40
2018-12-29T20:34:54.164Z,31.50
2018-12-29T20:37:23.524Z,33.50
2018-12-29T20:39:52.551Z,32.50
2018-12-29T20:42:21.788Z,31.83
2018-12-29T20:44:51.599Z,29.67
2018-12-29T20:47:20.885Z,28.30
2018-12-29T20:49:50.481Z,30.67
2018-12-29T20:52:19.728Z,30.17
2018-12-29T20:54:48.959Z,31.30
2018-12-29T20:57:18.418Z,30.43
2018-12-29T20:59:47.958Z,30.73
2018-12-29T21:02:17.163Z,32.57
2018-12-29T21:04:46.760Z,33.47
2018-12-29T21:07:16.478Z,33.77
2018-12-29T21:09:46.336Z,32.57
2018-12-29T21:12:15.656Z,30.83
2018-12-29T21:14:45.037Z,32.43
2018-12-29T21:17:14.564Z,34.53
2018-12-29T21:19:43.617Z,36.10
2018-12-29T21:22:13.377Z,31.23
2018-12-29T21:24:42.503Z,33.50
2018-12-29T21:27:11.719Z,32.30
2018-12-29T21:29:41.453Z,30.83
2018-12-29T21:32:11.543Z,31.90
2018-12-29T21:34:40.779Z,30.13
2018-12-29T21:37:10.079Z,29.73
2018-12-29T21:39:39.319Z,30.47
2018-12-29T21:42:08.429Z,31.53
2018-12-29T21:44:37.798Z,30.20
2018-12-29T21:47:07.200Z,29.30
2018-12-29T21:49:36.442Z,30.97
2018-12-29T21:52:05.601Z,30.83
2018-12-29T21:54:35.260Z,30.37
2018-12-29T21:57:04.665Z,30.47
2018-12-29T21:59:34.241Z,29.37
2018-12-29T22:02:04.019Z,30.37
2018-12-29T22:04:33.317Z,30.27
2018-12-29T22:07:02.720Z,29.57
2018-12-29T22:09:33.197Z,31.47
2018-12-29T22:12:02.239Z,31.30
2018-12-29T22:14:32.438Z,30.20
2018-12-29T22:17:01.838Z,29.37
2018-12-29T22:19:33.201Z,31.90
2018-12-29T22:22:02.560Z,30.30
2018-12-29T22:24:31.917Z,29.50
2018-12-29T22:27:01.937Z,31.00
2018-12-29T22:29:31.197Z,28.13
2018-12-29T22:32:00.364Z,27.57
2018-12-29T22:34:29.780Z,29.23
2018-12-29T22:36:59.205Z,28.00
2018-12-29T22:39:28.957Z,26.73
2018-12-29T22:41:58.539Z,26.90
2018-12-29T22:44:29.010Z,28.57
2018-12-29T22:46:58.959Z,30.07
2018-12-29T22:49:28.319Z,29.00
2018-12-29T22:51:57.762Z,29.93
2018-12-29T22:54:26.962Z,30.10
2018-12-29T22:56:57.779Z,28.70
2018-12-29T22:59:27.258Z,28.00
2018-12-29T23:01:56.660Z,28.57
2018-12-29T23:04:26.961Z,30.53
2018-12-29T23:06:56.640Z,30.07
2018-12-29T23:09:26.080Z,29.53
2018-12-29T23:11:55.661Z,29.50
2018-12-29T23:14:24.843Z,29.10
2018-12-29T23:16:54.700Z,29.07
2018-12-29T23:19:24.077Z,30.17
2018-12-29T23:21:53.917Z,30.63
2018-12-29T23:24:23.041Z,29.10
2018-12-29T23:26:52.402Z,27.20
2018-12-29T23:29:22.159Z,26.60
2018-12-29T23:31:51.857Z,27.23
2018-12-29T23:34:20.979Z,27.73
2018-12-29T23:36:50.238Z,26.07
2018-12-29T23:39:19.359Z,27.20
2018-12-29T23:41:48.958Z,26.90
2018-12-29T23:44:18.557Z,29.97
2018-12-29T23:46:47.890Z,28.83
2018-12-29T23:49:16.984Z,28.57
2018-12-29T23:51:46.162Z,27.93
2018-12-29T23:54:15.264Z,28.73
2018-12-29T23:56:44.797Z,27.83
2018-12-29T23:59:14.628Z,28.63
